sensor_id;sensor_type;location;lat;lon;timestamp;pressure;altitude;pressure_sealevel;temperature;humidity
22047;BME280;11187;49.412;20.956;2023-07-22T00:00:43;94603.81;;;16.52;100.00
22047;BME280;11187;49.412;20.956;2023-07-22T00:03:36;94605.66;;;16.49;100.00
22047;BME280;11187;49.412;20.956;2023-07-22T00:06:30;94599.56;;;16.50;100.00
22047;BME280;11187;49.412;20.956;2023-07-22T00:09:04;94606.47;;;16.50;100.00
22047;BME280;11187;49.412;20.956;2023-07-22T00:11:50;94605.66;;;16.49;100.00
22047;BME280;11187;49.412;20.956;2023-07-22T00:14:44;94622.97;;;16.47;100.00
22047;BME280;11187;49.412;20.956;2023-07-22T00:17:39;94617.03;;;16.45;100.00
22047;BME280;11187;49.412;20.956;2023-07-22T00:20:14;94618.88;;;16.43;100.00
22047;BME280;11187;49.412;20.956;2023-07-22T00:23:07;94625.84;;;16.41;100.00
22047;BME280;11187;49.412;20.956;2023-07-22T00:26:03;94627.59;;;16.41;100.00
22047;BME280;11187;49.412;20.956;2023-07-22T00:28:37;94625.94;;;16.40;100.00
22047;BME280;11187;49.412;20.956;2023-07-22T00:31:23;94630.25;;;16.39;100.00
22047;BME280;11187;49.412;20.956;2023-07-22T00:33:57;94624.19;;;16.40;100.00
22047;BME280;11187;49.412;20.956;2023-07-22T00:36:50;94616.44;;;16.40;100.00
22047;BME280;11187;49.412;20.956;2023-07-22T00:39:44;94631.03;;;16.41;100.00
22047;BME280;11187;49.412;20.956;2023-07-22T00:42:18;94619.03;;;16.40;100.00
22047;BME280;11187;49.412;20.956;2023-07-22T00:45:05;94613.84;;;16.40;100.00
22047;BME280;11187;49.412;20.956;2023-07-22T00:47:39;94612.94;;;16.41;100.00
22047;BME280;11187;49.412;20.956;2023-07-22T00:50:26;94625.78;;;16.43;100.00
22047;BME280;11187;49.412;20.956;2023-07-22T00:53:00;94611.03;;;16.45;100.00
22047;BME280;11187;49.412;20.956;2023-07-22T00:55:46;94611.81;;;16.47;100.00
22047;BME280;11187;49.412;20.956;2023-07-22T00:58:20;94618.63;;;16.48;100.00
22047;BME280;11187;49.412;20.956;2023-07-22T01:01:14;94616.88;;;16.48;100.00
22047;BME280;11187;49.412;20.956;2023-07-22T01:04:08;94619.41;;;16.50;100.00
22047;BME280;11187;49.412;20.956;2023-07-22T01:06:45;94620.22;;;16.50;100.00
22047;BME280;11187;49.412;20.956;2023-07-22T01:09:42;94621.97;;;16.50;100.00
22047;BME280;11187;49.412;20.956;2023-07-22T01:12:16;94620.31;;;16.49;100.00
22047;BME280;11187;49.412;20.956;2023-07-22T01:15:09;94619.56;;;16.47;100.00
22047;BME280;11187;49.412;20.956;2023-07-22T01:18:03;94617.03;;;16.45;100.00
22047;BME280;11187;49.412;20.956;2023-07-22T01:20:37;94621.38;;;16.45;100.00
22047;BME280;11187;49.412;20.956;2023-07-22T01:23:24;94618.09;;;16.41;100.00
22047;BME280;11187;49.412;20.956;2023-07-22T01:25:58;94622.50;;;16.39;100.00
22047;BME280;11187;49.412;20.956;2023-07-22T01:28:45;94618.31;;;16.37;100.00
22047;BME280;11187;49.412;20.956;2023-07-22T01:31:19;94613.31;;;16.34;100.00
22047;BME280;11187;49.412;20.956;2023-07-22T01:34:05;94612.63;;;16.30;100.00
22047;BME280;11187;49.412;20.956;2023-07-22T01:36:39;94611.03;;;16.27;100.00
22047;BME280;11187;49.412;20.956;2023-07-22T01:39:25;94613.78;;;16.24;100.00
22047;BME280;11187;49.412;20.956;2023-07-22T01:42:00;94621.59;;;16.23;100.00
22047;BME280;11187;49.412;20.956;2023-07-22T01:44:46;94611.53;;;16.17;100.00
22047;BME280;11187;49.412;20.956;2023-07-22T01:47:20;94610.03;;;16.13;100.00
22047;BME280;11187;49.412;20.956;2023-07-22T01:50:13;94618.78;;;16.10;100.00
22047;BME280;11187;49.412;20.956;2023-07-22T01:53:07;94616.47;;;16.04;100.00
22047;BME280;11187;49.412;20.956;2023-07-22T01:55:41;94613.19;;;16.00;100.00
22047;BME280;11187;49.412;20.956;2023-07-22T01:58:34;94609.16;;;15.95;100.00
22047;BME280;11187;49.412;20.956;2023-07-22T02:01:28;94616.38;;;15.88;100.00
22047;BME280;11187;49.412;20.956;2023-07-22T02:04:02;94614.78;;;15.85;100.00
22047;BME280;11187;49.412;20.956;2023-07-22T02:06:55;94612.25;;;15.84;100.00
22047;BME280;11187;49.412;20.956;2023-07-22T02:09:49;94608.13;;;15.80;100.00
22047;BME280;11187;49.412;20.956;2023-07-22T02:12:25;94610.09;;;15.75;100.00
22047;BME280;11187;49.412;20.956;2023-07-22T02:15:11;94606.75;;;15.73;100.00
22047;BME280;11187;49.412;20.956;2023-07-22T02:17:45;94602.50;;;15.72;100.00
22047;BME280;11187;49.412;20.956;2023-07-22T02:20:38;94600.94;;;15.68;100.00
22047;BME280;11187;49.412;20.956;2023-07-22T02:23:32;94594.47;;;15.59;100.00
22047;BME280;11187;49.412;20.956;2023-07-22T02:26:26;94603.31;;;15.53;100.00
22047;BME280;11187;49.412;20.956;2023-07-22T02:29:00;94612.13;;;15.49;100.00
22047;BME280;11187;49.412;20.956;2023-07-22T02:31:54;94616.72;;;15.42;100.00
22047;BME280;11187;49.412;20.956;2023-07-22T02:34:28;94618.53;;;15.40;100.00
22047;BME280;11187;49.412;20.956;2023-07-22T02:37:14;94616.22;;;15.34;100.00
22047;BME280;11187;49.412;20.956;2023-07-22T02:39:48;94619.91;;;15.29;100.00
22047;BME280;11187;49.412;20.956;2023-07-22T02:42:41;94608.94;;;15.23;100.00
22047;BME280;11187;49.412;20.956;2023-07-22T02:45:36;94613.34;;;15.21;100.00
22047;BME280;11187;49.412;20.956;2023-07-22T02:48:10;94621.16;;;15.20;100.00
22047;BME280;11187;49.412;20.956;2023-07-22T02:51:08;94607.50;;;15.18;100.00
22047;BME280;11187;49.412;20.956;2023-07-22T02:53:42;94612.66;;;15.18;100.00
22047;BME280;11187;49.412;20.956;2023-07-22T02:56:35;94635.03;;;15.17;100.00
22047;BME280;11187;49.412;20.956;2023-07-22T02:59:29;94616.25;;;15.14;100.00
22047;BME280;11187;49.412;20.956;2023-07-22T03:02:03;94628.31;;;15.13;100.00
22047;BME280;11187;49.412;20.956;2023-07-22T03:04:53;94633.53;;;15.12;100.00
22047;BME280;11187;49.412;20.956;2023-07-22T03:07:30;94640.44;;;15.11;100.00
22047;BME280;11187;49.412;20.956;2023-07-22T03:10:24;94634.50;;;15.09;100.00
22047;BME280;11187;49.412;20.956;2023-07-22T03:13:18;94637.09;;;15.09;100.00
22047;BME280;11187;49.412;20.956;2023-07-22T03:16:16;94643.03;;;15.11;100.00
22047;BME280;11187;49.412;20.956;2023-07-22T03:19:10;94639.53;;;15.12;100.00
22047;BME280;11187;49.412;20.956;2023-07-22T03:21:44;94650.63;;;15.14;100.00
22047;BME280;11187;49.412;20.956;2023-07-22T03:24:30;94642.88;;;15.14;100.00
22047;BME280;11187;49.412;20.956;2023-07-22T03:27:04;94645.41;;;15.16;100.00
22047;BME280;11187;49.412;20.956;2023-07-22T03:29:51;94667.63;;;15.18;100.00
22047;BME280;11187;49.412;20.956;2023-07-22T03:32:25;94654.69;;;15.20;100.00
22047;BME280;11187;49.412;20.956;2023-07-22T03:35:11;94659.84;;;15.20;100.00
22047;BME280;11187;49.412;20.956;2023-07-22T03:37:45;94670.16;;;15.20;100.00
22047;BME280;11187;49.412;20.956;2023-07-22T03:40:39;94670.00;;;15.23;100.00
22047;BME280;11187;49.412;20.956;2023-07-22T03:43:13;94659.63;;;15.24;100.00
22047;BME280;11187;49.412;20.956;2023-07-22T03:46:06;94658.72;;;15.25;100.00
22047;BME280;11187;49.412;20.956;2023-07-22T03:49:00;94667.22;;;15.28;100.00
22047;BME280;11187;49.412;20.956;2023-07-22T03:51:34;94651.84;;;15.26;100.00
22047;BME280;11187;49.412;20.956;2023-07-22T03:54:27;94659.50;;;15.28;100.00
22047;BME280;11187;49.412;20.956;2023-07-22T03:57:01;94667.22;;;15.28;100.00
22047;BME280;11187;49.412;20.956;2023-07-22T03:59:47;94664.59;;;15.29;100.00
22047;BME280;11187;49.412;20.956;2023-07-22T04:02:21;94667.03;;;15.32;100.00
22047;BME280;11187;49.412;20.956;2023-07-22T04:05:15;94666.97;;;15.34;100.00
22047;BME280;11187;49.412;20.956;2023-07-22T04:07:49;94671.22;;;15.35;100.00
22047;BME280;11187;49.412;20.956;2023-07-22T04:10:51;94668.63;;;15.35;100.00
22047;BME280;11187;49.412;20.956;2023-07-22T04:13:26;94675.38;;;15.37;100.00
22047;BME280;11187;49.412;20.956;2023-07-22T04:16:19;94674.44;;;15.40;100.00
22047;BME280;11187;49.412;20.956;2023-07-22T04:19:15;94683.69;;;15.44;100.00
22047;BME280;11187;49.412;20.956;2023-07-22T04:21:48;94695.56;;;15.48;100.00
22047;BME280;11187;49.412;20.956;2023-07-22T04:24:34;94692.00;;;15.51;100.00
22047;BME280;11187;49.412;20.956;2023-07-22T04:27:08;94675.63;;;15.52;100.00
22047;BME280;11187;49.412;20.956;2023-07-22T04:29:55;94679.03;;;15.52;100.00
22047;BME280;11187;49.412;20.956;2023-07-22T04:32:30;94679.81;;;15.54;100.00
22047;BME280;11187;49.412;20.956;2023-07-22T04:35:17;94684.00;;;15.57;100.00
22047;BME280;11187;49.412;20.956;2023-07-22T04:37:50;94685.53;;;15.61;100.00
22047;BME280;11187;49.412;20.956;2023-07-22T04:40:36;94684.34;;;15.68;100.00
22047;BME280;11187;49.412;20.956;2023-07-22T04:43:10;94687.47;;;15.76;100.00
22047;BME280;11187;49.412;20.956;2023-07-22T04:46:03;94692.28;;;15.84;100.00
22047;BME280;11187;49.412;20.956;2023-07-22T04:48:58;94684.03;;;15.95;100.00
22047;BME280;11187;49.412;20.956;2023-07-22T04:51:51;94684.16;;;16.11;100.00
22047;BME280;11187;49.412;20.956;2023-07-22T04:54:45;94690.50;;;16.22;100.00
22047;BME280;11187;49.412;20.956;2023-07-22T04:57:21;94693.47;;;16.32;100.00
22047;BME280;11187;49.412;20.956;2023-07-22T05:00:08;94689.00;;;16.36;100.00
22047;BME280;11187;49.412;20.956;2023-07-22T05:02:47;94688.72;;;16.42;100.00
22047;BME280;11187;49.412;20.956;2023-07-22T05:05:35;94690.22;;;16.46;100.00
22047;BME280;11187;49.412;20.956;2023-07-22T05:08:09;94687.63;;;16.46;100.00
22047;BME280;11187;49.412;20.956;2023-07-22T05:11:02;94684.06;;;16.48;100.00
22047;BME280;11187;49.412;20.956;2023-07-22T05:13:56;94685.59;;;16.53;100.00
22047;BME280;11187;49.412;20.956;2023-07-22T05:16:50;94671.56;;;16.58;100.00
22047;BME280;11187;49.412;20.956;2023-07-22T05:19:44;94675.28;;;16.70;100.00
22047;BME280;11187;49.412;20.956;2023-07-22T05:22:18;94670.28;;;16.84;100.00
22047;BME280;11187;49.412;20.956;2023-07-22T05:25:05;94667.75;;;17.00;100.00
22047;BME280;11187;49.412;20.956;2023-07-22T05:27:40;94672.31;;;17.13;100.00
22047;BME280;11187;49.412;20.956;2023-07-22T05:30:33;94662.16;;;17.25;100.00
22047;BME280;11187;49.412;20.956;2023-07-22T05:33:27;94667.31;;;17.43;100.00
22047;BME280;11187;49.412;20.956;2023-07-22T05:36:01;94667.41;;;17.57;100.00
22047;BME280;11187;49.412;20.956;2023-07-22T05:38:54;94674.19;;;17.75;100.00
22047;BME280;11187;49.412;20.956;2023-07-22T05:41:32;94671.66;;;17.91;100.00
22047;BME280;11187;49.412;20.956;2023-07-22T05:44:21;94669.81;;;18.09;100.00
22047;BME280;11187;49.412;20.956;2023-07-22T05:46:54;94677.50;;;18.27;100.00
22047;BME280;11187;49.412;20.956;2023-07-22T05:49:40;94680.00;;;18.44;100.00
22047;BME280;11187;49.412;20.956;2023-07-22T05:52:17;94682.28;;;18.65;100.00
22047;BME280;11187;49.412;20.956;2023-07-22T05:55:04;94682.09;;;18.84;100.00
22047;BME280;11187;49.412;20.956;2023-07-22T05:57:38;94677.94;;;18.95;100.00
22047;BME280;11187;49.412;20.956;2023-07-22T06:00:33;94675.38;;;19.10;100.00
22047;BME280;11187;49.412;20.956;2023-07-22T06:03:27;94672.53;;;19.29;100.00
22047;BME280;11187;49.412;20.956;2023-07-22T06:06:01;94670.31;;;19.37;100.00
22047;BME280;11187;49.412;20.956;2023-07-22T06:08:47;94683.66;;;19.45;100.00
22047;BME280;11187;49.412;20.956;2023-07-22T06:11:21;94671.81;;;19.55;100.00
22047;BME280;11187;49.412;20.956;2023-07-22T06:14:14;94684.81;;;19.70;100.00
22047;BME280;11187;49.412;20.956;2023-07-22T06:17:08;94687.66;;;19.79;99.90
22047;BME280;11187;49.412;20.956;2023-07-22T06:20:03;94695.19;;;19.84;99.37
22047;BME280;11187;49.412;20.956;2023-07-22T06:22:37;94692.41;;;19.87;99.48
22047;BME280;11187;49.412;20.956;2023-07-22T06:25:30;94695.44;;;19.94;98.82
22047;BME280;11187;49.412;20.956;2023-07-22T06:28:24;94694.16;;;20.01;97.48
22047;BME280;11187;49.412;20.956;2023-07-22T06:30:58;94698.94;;;20.07;96.88
22047;BME280;11187;49.412;20.956;2023-07-22T06:33:51;94702.41;;;20.08;96.62
22047;BME280;11187;49.412;20.956;2023-07-22T06:36:26;94704.88;;;20.09;95.75
22047;BME280;11187;49.412;20.956;2023-07-22T06:39:12;94708.22;;;20.11;96.59
22047;BME280;11187;49.412;20.956;2023-07-22T06:41:46;94723.00;;;20.11;95.98
22047;BME280;11187;49.412;20.956;2023-07-22T06:44:39;94725.69;;;20.09;93.92
22047;BME280;11187;49.412;20.956;2023-07-22T06:47:13;94720.59;;;20.08;95.15
22047;BME280;11187;49.412;20.956;2023-07-22T06:50:08;94717.44;;;20.02;93.69
22047;BME280;11187;49.412;20.956;2023-07-22T06:52:41;94719.94;;;20.04;94.60
22047;BME280;11187;49.412;20.956;2023-07-22T06:55:34;94724.19;;;20.05;94.70
22047;BME280;11187;49.412;20.956;2023-07-22T06:58:08;94727.25;;;20.12;94.00
22047;BME280;11187;49.412;20.956;2023-07-22T07:01:01;94717.50;;;20.15;94.31
22047;BME280;11187;49.412;20.956;2023-07-22T07:03:55;94733.66;;;20.20;94.54
22047;BME280;11187;49.412;20.956;2023-07-22T07:06:29;94733.47;;;20.23;94.47
22047;BME280;11187;49.412;20.956;2023-07-22T07:09:15;94737.19;;;20.19;93.32
22047;BME280;11187;49.412;20.956;2023-07-22T07:11:49;94739.88;;;20.18;94.76
22047;BME280;11187;49.412;20.956;2023-07-22T07:14:36;94749.53;;;20.16;92.18
22047;BME280;11187;49.412;20.956;2023-07-22T07:17:10;94747.22;;;20.11;93.28
22047;BME280;11187;49.412;20.956;2023-07-22T07:20:04;94757.88;;;20.07;92.15
22047;BME280;11187;49.412;20.956;2023-07-22T07:22:40;94752.97;;;20.02;92.17
22047;BME280;11187;49.412;20.956;2023-07-22T07:25:27;94760.22;;;19.97;92.57
22047;BME280;11187;49.412;20.956;2023-07-22T07:28:01;94764.88;;;19.92;93.33
22047;BME280;11187;49.412;20.956;2023-07-22T07:30:47;94766.16;;;19.85;94.44
22047;BME280;11187;49.412;20.956;2023-07-22T07:33:23;94774.97;;;19.82;93.58
22047;BME280;11187;49.412;20.956;2023-07-22T07:36:10;94783.88;;;19.78;94.32
22047;BME280;11187;49.412;20.956;2023-07-22T07:38:43;94790.09;;;19.75;94.53
22047;BME280;11187;49.412;20.956;2023-07-22T07:41:29;94792.97;;;19.71;94.89
22047;BME280;11187;49.412;20.956;2023-07-22T07:44:03;94789.53;;;19.70;95.18
22047;BME280;11187;49.412;20.956;2023-07-22T07:46:57;94808.38;;;19.74;96.41
22047;BME280;11187;49.412;20.956;2023-07-22T07:49:51;94803.19;;;19.74;95.42
22047;BME280;11187;49.412;20.956;2023-07-22T07:52:25;94808.38;;;19.74;94.41
22047;BME280;11187;49.412;20.956;2023-07-22T07:55:11;94811.88;;;19.73;93.93
22047;BME280;11187;49.412;20.956;2023-07-22T07:57:45;94811.06;;;19.72;93.86
22047;BME280;11187;49.412;20.956;2023-07-22T08:00:39;94801.69;;;19.70;93.82
22047;BME280;11187;49.412;20.956;2023-07-22T08:03:13;94823.38;;;19.69;94.72
22047;BME280;11187;49.412;20.956;2023-07-22T08:06:07;94817.50;;;19.65;94.02
22047;BME280;11187;49.412;20.956;2023-07-22T08:08:43;94821.97;;;19.63;94.60
22047;BME280;11187;49.412;20.956;2023-07-22T08:11:30;94825.31;;;19.65;94.68
22047;BME280;11187;49.412;20.956;2023-07-22T08:14:16;94823.97;;;19.74;94.31
22047;BME280;11187;49.412;20.956;2023-07-22T08:17:10;94835.47;;;19.84;93.39
22047;BME280;11187;49.412;20.956;2023-07-22T08:20:05;94834.75;;;19.96;94.28
22047;BME280;11187;49.412;20.956;2023-07-22T08:22:40;94843.84;;;20.03;92.62
22047;BME280;11187;49.412;20.956;2023-07-22T08:25:33;94855.91;;;20.05;91.13
22047;BME280;11187;49.412;20.956;2023-07-22T08:28:07;94846.34;;;20.05;89.86
22047;BME280;11187;49.412;20.956;2023-07-22T08:31:01;94860.47;;;20.15;91.89
22047;BME280;11187;49.412;20.956;2023-07-22T08:33:35;94856.38;;;20.26;90.03
22047;BME280;11187;49.412;20.956;2023-07-22T08:36:28;94849.59;;;20.23;89.34
22047;BME280;11187;49.412;20.956;2023-07-22T08:39:04;94850.25;;;20.27;89.48
22047;BME280;11187;49.412;20.956;2023-07-22T08:42:00;94861.88;;;20.35;89.88
22047;BME280;11187;49.412;20.956;2023-07-22T08:45:00;94865.00;;;20.40;89.70
22047;BME280;11187;49.412;20.956;2023-07-22T08:47:58;94870.47;;;20.50;90.61
22047;BME280;11187;49.412;20.956;2023-07-22T08:51:03;94864.75;;;20.59;89.25
22047;BME280;11187;49.412;20.956;2023-07-22T08:53:57;94864.53;;;20.77;88.70
22047;BME280;11187;49.412;20.956;2023-07-22T08:56:51;94876.22;;;20.98;87.29
22047;BME280;11187;49.412;20.956;2023-07-22T08:59:24;94880.09;;;21.05;88.50
22047;BME280;11187;49.412;20.956;2023-07-22T09:02:12;94874.03;;;21.05;88.37
22047;BME280;11187;49.412;20.956;2023-07-22T09:04:46;94887.59;;;21.10;87.71
22047;BME280;11187;49.412;20.956;2023-07-22T09:07:40;94891.56;;;21.16;87.60
22047;BME280;11187;49.412;20.956;2023-07-22T09:10:35;94896.84;;;21.28;88.06
22047;BME280;11187;49.412;20.956;2023-07-22T09:13:30;94895.50;;;21.36;87.70
22047;BME280;11187;49.412;20.956;2023-07-22T09:16:26;94896.34;;;21.36;88.62
22047;BME280;11187;49.412;20.956;2023-07-22T09:19:03;94905.72;;;21.39;87.80
22047;BME280;11187;49.412;20.956;2023-07-22T09:21:56;94915.41;;;21.37;85.24
22047;BME280;11187;49.412;20.956;2023-07-22T09:24:44;94915.69;;;21.32;86.40
22047;BME280;11187;49.412;20.956;2023-07-22T09:27:33;94915.69;;;21.32;85.57
22047;BME280;11187;49.412;20.956;2023-07-22T09:30:34;94910.94;;;21.39;84.73
22047;BME280;11187;49.412;20.956;2023-07-22T09:33:28;94909.19;;;21.39;85.22
22047;BME280;11187;49.412;20.956;2023-07-22T09:36:22;94906.31;;;21.44;84.60
22047;BME280;11187;49.412;20.956;2023-07-22T09:39:02;94904.31;;;21.47;84.38
22047;BME280;11187;49.412;20.956;2023-07-22T09:41:50;94901.94;;;21.44;84.41
22047;BME280;11187;49.412;20.956;2023-07-22T09:44:30;94906.09;;;21.47;84.91
22047;BME280;11187;49.412;20.956;2023-07-22T09:47:17;94907.03;;;21.46;84.31
22047;BME280;11187;49.412;20.956;2023-07-22T09:49:51;94903.41;;;21.48;85.54
22047;BME280;11187;49.412;20.956;2023-07-22T09:52:48;94910.81;;;21.55;83.93
22047;BME280;11187;49.412;20.956;2023-07-22T09:55:23;94914.97;;;21.57;83.17
22047;BME280;11187;49.412;20.956;2023-07-22T09:58:17;94903.72;;;21.57;83.07
22047;BME280;11187;49.412;20.956;2023-07-22T10:01:12;94906.97;;;21.60;82.99
22047;BME280;11187;49.412;20.956;2023-07-22T10:03:50;94901.56;;;21.63;83.47
22047;BME280;11187;49.412;20.956;2023-07-22T10:06:39;94903.88;;;21.68;82.63
22047;BME280;11187;49.412;20.956;2023-07-22T10:09:15;94906.81;;;21.76;81.67
22047;BME280;11187;49.412;20.956;2023-07-22T10:12:03;94903.25;;;21.77;80.27
22047;BME280;11187;49.412;20.956;2023-07-22T10:14:57;94900.88;;;21.74;81.06
22047;BME280;11187;49.412;20.956;2023-07-22T10:17:52;94903.47;;;21.74;81.50
22047;BME280;11187;49.412;20.956;2023-07-22T10:20:28;94897.00;;;21.80;81.13
22047;BME280;11187;49.412;20.956;2023-07-22T10:23:17;94904.81;;;21.80;81.20
22047;BME280;11187;49.412;20.956;2023-07-22T10:25:52;94894.84;;;21.86;80.83
22047;BME280;11187;49.412;20.956;2023-07-22T10:28:47;94911.94;;;21.90;80.50
22047;BME280;11187;49.412;20.956;2023-07-22T10:31:20;94906.94;;;21.87;80.74
22047;BME280;11187;49.412;20.956;2023-07-22T10:34:14;94907.88;;;21.86;81.38
22047;BME280;11187;49.412;20.956;2023-07-22T10:37:09;94911.50;;;21.84;82.13
22047;BME280;11187;49.412;20.956;2023-07-22T10:43:30;94923.78;;;21.69;81.76
22047;BME280;11187;49.412;20.956;2023-07-22T10:46:35;94921.97;;;21.57;82.30
22047;BME280;11187;49.412;20.956;2023-07-22T10:49:14;94922.47;;;21.49;82.11
22047;BME280;11187;49.412;20.956;2023-07-22T10:52:10;94918.75;;;21.39;82.79
22047;BME280;11187;49.412;20.956;2023-07-22T10:54:45;94922.38;;;21.36;82.36
22047;BME280;11187;49.412;20.956;2023-07-22T10:57:53;94928.38;;;21.24;81.68
22047;BME280;11187;49.412;20.956;2023-07-22T11:00:31;94934.06;;;21.16;83.01
22047;BME280;11187;49.412;20.956;2023-07-22T11:03:25;94941.53;;;21.08;83.48
22047;BME280;11187;49.412;20.956;2023-07-22T11:06:19;94955.13;;;20.99;84.02
22047;BME280;11187;49.412;20.956;2023-07-22T11:12:14;94953.53;;;20.82;83.87
22047;BME280;11187;49.412;20.956;2023-07-22T11:15:03;94959.97;;;20.76;83.62
22047;BME280;11187;49.412;20.956;2023-07-22T11:17:41;94960.25;;;20.72;84.10
22047;BME280;11187;49.412;20.956;2023-07-22T11:20:33;94957.09;;;20.67;84.61
22047;BME280;11187;49.412;20.956;2023-07-22T11:23:06;94954.75;;;20.62;84.93
22047;BME280;11187;49.412;20.956;2023-07-22T11:25:53;94957.53;;;20.59;84.05
22047;BME280;11187;49.412;20.956;2023-07-22T11:28:27;94950.69;;;20.58;85.17
22047;BME280;11187;49.412;20.956;2023-07-22T11:31:14;94954.34;;;20.54;84.02
22047;BME280;11187;49.412;20.956;2023-07-22T11:33:47;94957.78;;;20.54;85.41
22047;BME280;11187;49.412;20.956;2023-07-22T11:36:34;94956.97;;;20.54;85.50
22047;BME280;11187;49.412;20.956;2023-07-22T11:39:10;94957.16;;;20.51;85.40
22047;BME280;11187;49.412;20.956;2023-07-22T11:41:57;94962.44;;;20.49;85.20
22047;BME280;11187;49.412;20.956;2023-07-22T11:44:32;94967.09;;;20.44;85.42
22047;BME280;11187;49.412;20.956;2023-07-22T11:47:28;94966.50;;;20.39;84.83
22047;BME280;11187;49.412;20.956;2023-07-22T11:50:02;94965.75;;;20.37;85.87
22047;BME280;11187;49.412;20.956;2023-07-22T11:52:51;94966.78;;;20.34;86.16
22047;BME280;11187;49.412;20.956;2023-07-22T11:55:25;94963.44;;;20.32;85.96
22047;BME280;11187;49.412;20.956;2023-07-22T11:58:25;94952.28;;;20.30;85.63
22047;BME280;11187;49.412;20.956;2023-07-22T12:01:19;94951.44;;;20.30;86.59
22047;BME280;11187;49.412;20.956;2023-07-22T12:03:55;94944.41;;;20.32;86.64
22047;BME280;11187;49.412;20.956;2023-07-22T12:06:42;94945.16;;;20.34;86.91
22047;BME280;11187;49.412;20.956;2023-07-22T12:09:15;94938.56;;;20.42;86.92
22047;BME280;11187;49.412;20.956;2023-07-22T12:12:02;94935.31;;;20.53;85.59
22047;BME280;11187;49.412;20.956;2023-07-22T12:14:49;94928.56;;;20.65;84.42
22047;BME280;11187;49.412;20.956;2023-07-22T12:17:53;94929.84;;;20.72;83.72
22047;BME280;11187;49.412;20.956;2023-07-22T12:20:48;94936.63;;;20.75;84.44
22047;BME280;11187;49.412;20.956;2023-07-22T12:23:42;94938.41;;;20.74;85.04
22047;BME280;11187;49.412;20.956;2023-07-22T12:26:16;94932.47;;;20.72;84.70
22047;BME280;11187;49.412;20.956;2023-07-22T12:29:03;94931.63;;;20.72;84.82
22047;BME280;11187;49.412;20.956;2023-07-22T12:31:36;94928.38;;;20.68;84.47
22047;BME280;11187;49.412;20.956;2023-07-22T12:34:23;94920.69;;;20.67;83.65
22047;BME280;11187;49.412;20.956;2023-07-22T12:36:56;94917.22;;;20.66;83.76
22047;BME280;11187;49.412;20.956;2023-07-22T12:39:43;94924.94;;;20.68;84.15
22047;BME280;11187;49.412;20.956;2023-07-22T12:42:16;94915.09;;;20.73;83.38
22047;BME280;11187;49.412;20.956;2023-07-22T12:45:04;94921.56;;;20.80;83.81
22047;BME280;11187;49.412;20.956;2023-07-22T12:47:37;94914.72;;;20.79;83.74
22047;BME280;11187;49.412;20.956;2023-07-22T12:50:31;94915.81;;;20.75;83.03
22047;BME280;11187;49.412;20.956;2023-07-22T12:53:05;94918.34;;;20.76;84.16
22047;BME280;11187;49.412;20.956;2023-07-22T12:55:52;94915.63;;;20.78;82.65
22047;BME280;11187;49.412;20.956;2023-07-22T12:58:25;94910.25;;;20.81;82.97
22047;BME280;11187;49.412;20.956;2023-07-22T13:01:12;94917.31;;;20.79;82.50
22047;BME280;11187;49.412;20.956;2023-07-22T13:03:46;94906.06;;;20.78;83.09
22047;BME280;11187;49.412;20.956;2023-07-22T13:06:33;94898.34;;;20.77;82.60
22047;BME280;11187;49.412;20.956;2023-07-22T13:09:06;94891.50;;;20.76;81.56
22047;BME280;11187;49.412;20.956;2023-07-22T13:12:00;94907.09;;;20.76;82.63
22047;BME280;11187;49.412;20.956;2023-07-22T13:14:54;94893.34;;;20.74;81.98
22047;BME280;11187;49.412;20.956;2023-07-22T13:17:48;94898.72;;;20.71;81.76
22047;BME280;11187;49.412;20.956;2023-07-22T13:20:21;94889.88;;;20.73;81.00
22047;BME280;11187;49.412;20.956;2023-07-22T13:23:08;94886.38;;;20.74;81.62
22047;BME280;11187;49.412;20.956;2023-07-22T13:25:41;94894.72;;;20.79;79.93
22047;BME280;11187;49.412;20.956;2023-07-22T13:28:35;94891.28;;;20.79;78.95
22047;BME280;11187;49.412;20.956;2023-07-22T13:31:29;94885.16;;;20.80;78.58
22047;BME280;11187;49.412;20.956;2023-07-22T13:34:23;94894.63;;;20.81;80.82
22047;BME280;11187;49.412;20.956;2023-07-22T13:37:17;94897.16;;;20.82;78.69
22047;BME280;11187;49.412;20.956;2023-07-22T13:40:11;94887.66;;;20.81;78.21
22047;BME280;11187;49.412;20.956;2023-07-22T13:42:45;94895.38;;;20.83;77.21
22047;BME280;11187;49.412;20.956;2023-07-22T13:45:39;94891.94;;;20.82;78.50
22047;BME280;11187;49.412;20.956;2023-07-22T13:48:33;94892.88;;;20.81;80.14
22047;BME280;11187;49.412;20.956;2023-07-22T13:51:27;94892.94;;;20.80;79.27
22047;BME280;11187;49.412;20.956;2023-07-22T13:54:00;94895.56;;;20.80;77.73
22047;BME280;11187;49.412;20.956;2023-07-22T13:56:47;94892.94;;;20.80;78.38
22047;BME280;11187;49.412;20.956;2023-07-22T13:59:20;94905.78;;;20.83;78.23
22047;BME280;11187;49.412;20.956;2023-07-22T14:02:14;94902.25;;;20.84;76.80
22047;BME280;11187;49.412;20.956;2023-07-22T14:05:08;94903.06;;;20.84;79.17
22047;BME280;11187;49.412;20.956;2023-07-22T14:07:41;94910.06;;;20.84;79.84
22047;BME280;11187;49.412;20.956;2023-07-22T14:10:28;94901.31;;;20.85;78.39
22047;BME280;11187;49.412;20.956;2023-07-22T14:13:01;94901.31;;;20.85;79.29
22047;BME280;11187;49.412;20.956;2023-07-22T14:15:48;94902.97;;;20.86;79.93
22047;BME280;11187;49.412;20.956;2023-07-22T14:18:37;94903.94;;;20.85;79.05
22047;BME280;11187;49.412;20.956;2023-07-22T14:21:25;94902.97;;;20.86;77.27
22047;BME280;11187;49.412;20.956;2023-07-22T14:23:58;94903.81;;;20.86;79.68